Skillman, New Jersey
Current Conditions -  °F | °C
As of 5:53 AM on Monday 20 Oct 2014 (Local Time) from KTTN Reporting Station
Clear Clear  
Wind Chill: 29°   Ceiling: Unl
Heat Index: 33°   Visibility: 10mi
Dew Point: 30°   Wind: 5mph
Humidity: 89%   Direction: 230°SW
Pressure: 30.11"   Gusts: NA
Location:  40.42°N, 74.71°W
Report Text: KTTN 200953Z 23004KT 10SM CLR 01/M01 A3011 RMK AO2 SLP190 T00061011
Loading
Personal Weather Stations






























Interactive Weather Map
Tropical Storm Tracking
New forecast layout! Learn more

10-Day Weather Forecast

Advertisements
Track Severe Weather on mobile